sensor_id;sensor_type;location;lat;lon;timestamp;temperature;humidity
27506;DHT22;14939;43.596;1.320;2023-07-09T00:00:16;23.40;39.70
27506;DHT22;14939;43.596;1.320;2023-07-09T00:02:42;23.40;40.60
27506;DHT22;14939;43.596;1.320;2023-07-09T00:05:13;23.40;40.40
27506;DHT22;14939;43.596;1.320;2023-07-09T00:07:39;23.40;40.90
27506;DHT22;14939;43.596;1.320;2023-07-09T00:10:12;23.30;40.60
27506;DHT22;14939;43.596;1.320;2023-07-09T00:12:38;23.30;41.10
27506;DHT22;14939;43.596;1.320;2023-07-09T00:15:04;23.20;41.60
27506;DHT22;14939;43.596;1.320;2023-07-09T00:17:30;23.20;42.10
27506;DHT22;14939;43.596;1.320;2023-07-09T00:19:57;23.10;42.30
27506;DHT22;14939;43.596;1.320;2023-07-09T00:22:22;23.00;42.60
27506;DHT22;14939;43.596;1.320;2023-07-09T00:24:49;23.00;43.40
27506;DHT22;14939;43.596;1.320;2023-07-09T00:27:19;22.90;44.10
27506;DHT22;14939;43.596;1.320;2023-07-09T00:29:45;22.80;43.90
27506;DHT22;14939;43.596;1.320;2023-07-09T00:32:14;22.80;44.30
27506;DHT22;14939;43.596;1.320;2023-07-09T00:34:42;22.80;44.40
27506;DHT22;14939;43.596;1.320;2023-07-09T00:37:10;22.80;44.10
27506;DHT22;14939;43.596;1.320;2023-07-09T00:39:36;22.80;44.60
27506;DHT22;14939;43.596;1.320;2023-07-09T00:42:02;22.70;45.00
27506;DHT22;14939;43.596;1.320;2023-07-09T00:44:31;22.70;45.30
27506;DHT22;14939;43.596;1.320;2023-07-09T00:49:26;22.60;45.60
27506;DHT22;14939;43.596;1.320;2023-07-09T00:51:54;22.60;45.70
27506;DHT22;14939;43.596;1.320;2023-07-09T00:54:28;22.50;47.00
27506;DHT22;14939;43.596;1.320;2023-07-09T00:56:57;22.50;47.20
27506;DHT22;14939;43.596;1.320;2023-07-09T00:59:25;22.60;46.70
27506;DHT22;14939;43.596;1.320;2023-07-09T01:01:54;22.60;46.90
27506;DHT22;14939;43.596;1.320;2023-07-09T01:04:20;22.50;47.10
27506;DHT22;14939;43.596;1.320;2023-07-09T01:06:51;22.50;47.50
27506;DHT22;14939;43.596;1.320;2023-07-09T01:09:17;22.50;47.50
27506;DHT22;14939;43.596;1.320;2023-07-09T01:11:42;22.50;47.50
27506;DHT22;14939;43.596;1.320;2023-07-09T01:14:09;22.50;47.40
27506;DHT22;14939;43.596;1.320;2023-07-09T01:16:41;22.50;47.30
27506;DHT22;14939;43.596;1.320;2023-07-09T01:19:08;22.50;47.40
27506;DHT22;14939;43.596;1.320;2023-07-09T01:21:34;22.40;47.70
27506;DHT22;14939;43.596;1.320;2023-07-09T01:24:11;22.40;47.90
27506;DHT22;14939;43.596;1.320;2023-07-09T01:26:37;22.30;48.00
27506;DHT22;14939;43.596;1.320;2023-07-09T01:29:04;22.40;48.20
27506;DHT22;14939;43.596;1.320;2023-07-09T01:31:29;22.40;48.00
27506;DHT22;14939;43.596;1.320;2023-07-09T01:33:55;22.40;48.50
27506;DHT22;14939;43.596;1.320;2023-07-09T01:36:21;22.40;48.30
27506;DHT22;14939;43.596;1.320;2023-07-09T01:38:47;22.40;47.90
27506;DHT22;14939;43.596;1.320;2023-07-09T01:41:14;22.40;48.20
27506;DHT22;14939;43.596;1.320;2023-07-09T01:43:40;22.40;48.40
27506;DHT22;14939;43.596;1.320;2023-07-09T01:46:07;22.50;47.80
27506;DHT22;14939;43.596;1.320;2023-07-09T01:48:32;22.50;48.20
27506;DHT22;14939;43.596;1.320;2023-07-09T01:51:06;22.50;48.80
27506;DHT22;14939;43.596;1.320;2023-07-09T01:53:32;22.50;48.60
27506;DHT22;14939;43.596;1.320;2023-07-09T01:55:59;22.50;47.90
27506;DHT22;14939;43.596;1.320;2023-07-09T01:58:24;22.40;48.80
27506;DHT22;14939;43.596;1.320;2023-07-09T02:00:50;22.40;48.80
27506;DHT22;14939;43.596;1.320;2023-07-09T02:03:16;22.40;49.00
27506;DHT22;14939;43.596;1.320;2023-07-09T02:05:43;22.40;49.50
27506;DHT22;14939;43.596;1.320;2023-07-09T02:08:08;22.40;49.70
27506;DHT22;14939;43.596;1.320;2023-07-09T02:10:34;22.40;49.90
27506;DHT22;14939;43.596;1.320;2023-07-09T02:12:59;22.40;50.00
27506;DHT22;14939;43.596;1.320;2023-07-09T02:15:25;22.40;50.20
27506;DHT22;14939;43.596;1.320;2023-07-09T02:17:51;22.40;50.70
27506;DHT22;14939;43.596;1.320;2023-07-09T02:20:17;22.30;50.10
27506;DHT22;14939;43.596;1.320;2023-07-09T02:22:44;22.30;50.80
27506;DHT22;14939;43.596;1.320;2023-07-09T02:25:10;22.30;51.30
27506;DHT22;14939;43.596;1.320;2023-07-09T02:27:36;22.20;51.60
27506;DHT22;14939;43.596;1.320;2023-07-09T02:30:02;22.30;52.20
27506;DHT22;14939;43.596;1.320;2023-07-09T02:32:28;22.20;51.90
27506;DHT22;14939;43.596;1.320;2023-07-09T02:34:54;22.20;52.90
27506;DHT22;14939;43.596;1.320;2023-07-09T02:37:21;22.10;52.80
27506;DHT22;14939;43.596;1.320;2023-07-09T02:39:47;22.10;53.20
27506;DHT22;14939;43.596;1.320;2023-07-09T02:42:13;22.10;53.60
27506;DHT22;14939;43.596;1.320;2023-07-09T02:44:43;22.00;53.50
27506;DHT22;14939;43.596;1.320;2023-07-09T02:47:09;22.00;54.00
27506;DHT22;14939;43.596;1.320;2023-07-09T02:49:34;22.00;54.60
27506;DHT22;14939;43.596;1.320;2023-07-09T02:52:00;22.00;54.60
27506;DHT22;14939;43.596;1.320;2023-07-09T02:54:26;21.80;55.60
27506;DHT22;14939;43.596;1.320;2023-07-09T02:56:51;21.80;56.70
27506;DHT22;14939;43.596;1.320;2023-07-09T02:59:17;21.90;56.40
27506;DHT22;14939;43.596;1.320;2023-07-09T03:01:42;21.90;56.50
27506;DHT22;14939;43.596;1.320;2023-07-09T03:04:08;21.80;56.80
27506;DHT22;14939;43.596;1.320;2023-07-09T03:06:34;21.80;56.60
27506;DHT22;14939;43.596;1.320;2023-07-09T03:09:00;21.80;56.40
27506;DHT22;14939;43.596;1.320;2023-07-09T03:11:27;21.80;57.00
27506;DHT22;14939;43.596;1.320;2023-07-09T03:13:53;21.80;57.30
27506;DHT22;14939;43.596;1.320;2023-07-09T03:16:19;21.80;57.20
27506;DHT22;14939;43.596;1.320;2023-07-09T03:18:45;21.80;56.40
27506;DHT22;14939;43.596;1.320;2023-07-09T03:21:10;21.80;56.70
27506;DHT22;14939;43.596;1.320;2023-07-09T03:23:36;21.80;56.50
27506;DHT22;14939;43.596;1.320;2023-07-09T03:26:02;21.70;56.80
27506;DHT22;14939;43.596;1.320;2023-07-09T03:28:29;21.70;56.90
27506;DHT22;14939;43.596;1.320;2023-07-09T03:30:55;21.80;56.80
27506;DHT22;14939;43.596;1.320;2023-07-09T03:33:21;21.80;56.60
27506;DHT22;14939;43.596;1.320;2023-07-09T03:35:47;21.80;56.20
27506;DHT22;14939;43.596;1.320;2023-07-09T03:38:13;21.70;56.50
27506;DHT22;14939;43.596;1.320;2023-07-09T03:40:38;21.80;56.70
27506;DHT22;14939;43.596;1.320;2023-07-09T03:43:04;21.70;56.90
27506;DHT22;14939;43.596;1.320;2023-07-09T03:45:32;21.70;58.00
27506;DHT22;14939;43.596;1.320;2023-07-09T03:47:58;21.70;58.10
27506;DHT22;14939;43.596;1.320;2023-07-09T03:50:23;21.60;58.20
27506;DHT22;14939;43.596;1.320;2023-07-09T03:52:49;21.60;58.50
27506;DHT22;14939;43.596;1.320;2023-07-09T03:55:14;21.60;59.10
27506;DHT22;14939;43.596;1.320;2023-07-09T03:57:40;21.50;59.80
27506;DHT22;14939;43.596;1.320;2023-07-09T04:00:06;21.40;60.90
27506;DHT22;14939;43.596;1.320;2023-07-09T04:02:35;21.40;61.40
27506;DHT22;14939;43.596;1.320;2023-07-09T04:05:01;21.40;61.90
27506;DHT22;14939;43.596;1.320;2023-07-09T04:07:27;21.40;62.20
27506;DHT22;14939;43.596;1.320;2023-07-09T04:09:52;21.40;62.10
27506;DHT22;14939;43.596;1.320;2023-07-09T04:12:18;21.30;62.20
27506;DHT22;14939;43.596;1.320;2023-07-09T04:14:43;21.30;62.70
27506;DHT22;14939;43.596;1.320;2023-07-09T04:17:09;21.30;63.60
27506;DHT22;14939;43.596;1.320;2023-07-09T04:19:34;21.30;63.60
27506;DHT22;14939;43.596;1.320;2023-07-09T04:22:00;21.30;64.10
27506;DHT22;14939;43.596;1.320;2023-07-09T04:24:25;21.30;65.00
27506;DHT22;14939;43.596;1.320;2023-07-09T04:26:52;21.30;64.80
27506;DHT22;14939;43.596;1.320;2023-07-09T04:29:22;21.30;64.30
27506;DHT22;14939;43.596;1.320;2023-07-09T04:31:47;21.40;64.30
27506;DHT22;14939;43.596;1.320;2023-07-09T04:34:13;21.40;64.30
27506;DHT22;14939;43.596;1.320;2023-07-09T04:36:39;21.50;63.60
27506;DHT22;14939;43.596;1.320;2023-07-09T04:39:04;21.50;63.00
27506;DHT22;14939;43.596;1.320;2023-07-09T04:41:30;21.60;62.50
27506;DHT22;14939;43.596;1.320;2023-07-09T04:43:56;21.60;62.20
27506;DHT22;14939;43.596;1.320;2023-07-09T04:46:21;21.60;63.50
27506;DHT22;14939;43.596;1.320;2023-07-09T04:48:47;21.60;61.80
27506;DHT22;14939;43.596;1.320;2023-07-09T04:51:12;21.70;60.70
27506;DHT22;14939;43.596;1.320;2023-07-09T04:53:38;21.70;61.10
27506;DHT22;14939;43.596;1.320;2023-07-09T04:56:03;21.70;61.00
27506;DHT22;14939;43.596;1.320;2023-07-09T04:58:29;21.70;61.80
27506;DHT22;14939;43.596;1.320;2023-07-09T05:00:58;21.80;60.60
27506;DHT22;14939;43.596;1.320;2023-07-09T05:03:24;21.80;61.40
27506;DHT22;14939;43.596;1.320;2023-07-09T05:05:49;21.80;60.90
27506;DHT22;14939;43.596;1.320;2023-07-09T05:08:15;21.80;60.80
27506;DHT22;14939;43.596;1.320;2023-07-09T05:10:42;21.80;61.60
27506;DHT22;14939;43.596;1.320;2023-07-09T05:13:08;21.70;61.10
27506;DHT22;14939;43.596;1.320;2023-07-09T05:15:33;21.70;61.80
27506;DHT22;14939;43.596;1.320;2023-07-09T05:17:59;21.70;61.10
27506;DHT22;14939;43.596;1.320;2023-07-09T05:20:24;21.70;61.30
27506;DHT22;14939;43.596;1.320;2023-07-09T05:22:51;21.70;61.30
27506;DHT22;14939;43.596;1.320;2023-07-09T05:25:16;21.70;61.60
27506;DHT22;14939;43.596;1.320;2023-07-09T05:27:42;21.70;61.90
27506;DHT22;14939;43.596;1.320;2023-07-09T05:30:08;21.80;60.80
27506;DHT22;14939;43.596;1.320;2023-07-09T05:32:34;21.80;60.80
27506;DHT22;14939;43.596;1.320;2023-07-09T05:35:00;21.80;60.90
27506;DHT22;14939;43.596;1.320;2023-07-09T05:37:26;21.90;61.70
27506;DHT22;14939;43.596;1.320;2023-07-09T05:39:51;22.00;60.80
27506;DHT22;14939;43.596;1.320;2023-07-09T05:42:17;22.00;61.20
27506;DHT22;14939;43.596;1.320;2023-07-09T05:44:43;22.10;60.90
27506;DHT22;14939;43.596;1.320;2023-07-09T05:47:08;22.10;61.30
27506;DHT22;14939;43.596;1.320;2023-07-09T05:49:34;22.10;62.40
27506;DHT22;14939;43.596;1.320;2023-07-09T05:51:59;22.20;63.20
27506;DHT22;14939;43.596;1.320;2023-07-09T05:54:25;22.30;63.60
27506;DHT22;14939;43.596;1.320;2023-07-09T05:56:51;22.20;64.50
27506;DHT22;14939;43.596;1.320;2023-07-09T05:59:16;22.30;65.20
27506;DHT22;14939;43.596;1.320;2023-07-09T06:01:42;22.40;67.30
27506;DHT22;14939;43.596;1.320;2023-07-09T06:04:07;22.40;69.60
27506;DHT22;14939;43.596;1.320;2023-07-09T06:06:33;22.40;70.70
27506;DHT22;14939;43.596;1.320;2023-07-09T06:08:58;22.40;72.30
27506;DHT22;14939;43.596;1.320;2023-07-09T06:11:24;22.40;73.30
27506;DHT22;14939;43.596;1.320;2023-07-09T06:13:49;22.50;73.60
27506;DHT22;14939;43.596;1.320;2023-07-09T06:16:15;22.50;74.10
27506;DHT22;14939;43.596;1.320;2023-07-09T06:18:41;22.50;75.70
27506;DHT22;14939;43.596;1.320;2023-07-09T06:21:07;22.60;75.70
27506;DHT22;14939;43.596;1.320;2023-07-09T06:23:34;22.60;76.50
27506;DHT22;14939;43.596;1.320;2023-07-09T06:26:00;22.60;76.80
27506;DHT22;14939;43.596;1.320;2023-07-09T06:28:26;22.70;76.40
27506;DHT22;14939;43.596;1.320;2023-07-09T06:30:54;22.80;77.10
27506;DHT22;14939;43.596;1.320;2023-07-09T06:33:19;22.90;76.50
27506;DHT22;14939;43.596;1.320;2023-07-09T06:35:55;22.90;76.30
27506;DHT22;14939;43.596;1.320;2023-07-09T06:38:21;23.00;76.90
27506;DHT22;14939;43.596;1.320;2023-07-09T06:40:47;23.00;77.00
27506;DHT22;14939;43.596;1.320;2023-07-09T06:43:13;22.90;77.60
27506;DHT22;14939;43.596;1.320;2023-07-09T06:45:39;23.00;77.20
27506;DHT22;14939;43.596;1.320;2023-07-09T06:48:12;23.10;76.90
27506;DHT22;14939;43.596;1.320;2023-07-09T06:50:38;23.00;76.90
27506;DHT22;14939;43.596;1.320;2023-07-09T06:53:04;22.90;77.40
27506;DHT22;14939;43.596;1.320;2023-07-09T06:55:29;23.00;78.00
27506;DHT22;14939;43.596;1.320;2023-07-09T06:57:55;22.90;78.50
27506;DHT22;14939;43.596;1.320;2023-07-09T07:00:21;22.80;78.70
27506;DHT22;14939;43.596;1.320;2023-07-09T07:02:46;22.80;79.50
27506;DHT22;14939;43.596;1.320;2023-07-09T07:05:12;22.90;79.80
27506;DHT22;14939;43.596;1.320;2023-07-09T07:07:37;22.90;78.30
27506;DHT22;14939;43.596;1.320;2023-07-09T07:10:03;22.90;78.30
27506;DHT22;14939;43.596;1.320;2023-07-09T07:12:29;23.00;78.60
27506;DHT22;14939;43.596;1.320;2023-07-09T07:14:55;22.90;79.60
27506;DHT22;14939;43.596;1.320;2023-07-09T07:17:21;22.90;80.20
27506;DHT22;14939;43.596;1.320;2023-07-09T07:19:46;23.10;79.30
27506;DHT22;14939;43.596;1.320;2023-07-09T07:22:12;23.30;79.30
27506;DHT22;14939;43.596;1.320;2023-07-09T07:24:38;23.30;77.50
27506;DHT22;14939;43.596;1.320;2023-07-09T07:27:04;23.20;78.00
27506;DHT22;14939;43.596;1.320;2023-07-09T07:29:29;23.20;77.40
27506;DHT22;14939;43.596;1.320;2023-07-09T07:31:55;23.30;77.20
27506;DHT22;14939;43.596;1.320;2023-07-09T07:34:20;23.50;76.50
27506;DHT22;14939;43.596;1.320;2023-07-09T07:36:47;23.50;75.30
27506;DHT22;14939;43.596;1.320;2023-07-09T07:39:12;23.60;75.00
27506;DHT22;14939;43.596;1.320;2023-07-09T07:41:38;23.70;73.40
27506;DHT22;14939;43.596;1.320;2023-07-09T07:44:04;23.70;74.00
27506;DHT22;14939;43.596;1.320;2023-07-09T07:46:30;24.00;73.00
27506;DHT22;14939;43.596;1.320;2023-07-09T07:48:57;24.20;72.20
27506;DHT22;14939;43.596;1.320;2023-07-09T07:51:23;24.20;71.60
27506;DHT22;14939;43.596;1.320;2023-07-09T07:53:48;24.20;71.70
27506;DHT22;14939;43.596;1.320;2023-07-09T07:56:14;24.10;71.90
27506;DHT22;14939;43.596;1.320;2023-07-09T07:58:40;24.20;71.80
27506;DHT22;14939;43.596;1.320;2023-07-09T08:01:05;24.40;72.50
27506;DHT22;14939;43.596;1.320;2023-07-09T08:03:31;24.30;71.80
27506;DHT22;14939;43.596;1.320;2023-07-09T08:05:56;24.20;71.40
27506;DHT22;14939;43.596;1.320;2023-07-09T08:08:22;24.20;72.40
27506;DHT22;14939;43.596;1.320;2023-07-09T08:10:51;24.30;70.10
27506;DHT22;14939;43.596;1.320;2023-07-09T08:13:17;24.20;69.60
27506;DHT22;14939;43.596;1.320;2023-07-09T08:15:42;24.30;70.00
27506;DHT22;14939;43.596;1.320;2023-07-09T08:18:10;24.20;67.30
27506;DHT22;14939;43.596;1.320;2023-07-09T08:20:35;24.30;68.50
27506;DHT22;14939;43.596;1.320;2023-07-09T08:23:02;24.30;67.50
27506;DHT22;14939;43.596;1.320;2023-07-09T08:25:27;24.30;69.30
27506;DHT22;14939;43.596;1.320;2023-07-09T08:27:53;24.30;69.70
27506;DHT22;14939;43.596;1.320;2023-07-09T08:30:18;24.40;67.40
27506;DHT22;14939;43.596;1.320;2023-07-09T08:32:44;24.40;69.20
27506;DHT22;14939;43.596;1.320;2023-07-09T08:35:09;24.60;68.70
27506;DHT22;14939;43.596;1.320;2023-07-09T08:37:37;24.60;68.10
27506;DHT22;14939;43.596;1.320;2023-07-09T08:40:04;24.50;67.30
27506;DHT22;14939;43.596;1.320;2023-07-09T08:42:31;24.50;67.20
27506;DHT22;14939;43.596;1.320;2023-07-09T08:52:35;24.80;65.40
27506;DHT22;14939;43.596;1.320;2023-07-09T08:55:03;25.10;64.10
27506;DHT22;14939;43.596;1.320;2023-07-09T08:57:32;25.50;62.20
27506;DHT22;14939;43.596;1.320;2023-07-09T09:00:03;25.50;62.50
27506;DHT22;14939;43.596;1.320;2023-07-09T09:02:36;25.30;62.60
27506;DHT22;14939;43.596;1.320;2023-07-09T09:05:04;25.40;62.40
27506;DHT22;14939;43.596;1.320;2023-07-09T09:09:56;25.70;61.60
27506;DHT22;14939;43.596;1.320;2023-07-09T09:14:55;25.20;61.90
27506;DHT22;14939;43.596;1.320;2023-07-09T09:17:23;25.10;63.50
27506;DHT22;14939;43.596;1.320;2023-07-09T09:19:53;25.10;62.20
27506;DHT22;14939;43.596;1.320;2023-07-09T09:22:23;25.30;61.90
27506;DHT22;14939;43.596;1.320;2023-07-09T09:25:11;25.20;60.80
27506;DHT22;14939;43.596;1.320;2023-07-09T09:27:40;25.40;61.60
27506;DHT22;14939;43.596;1.320;2023-07-09T09:30:14;25.30;61.00
27506;DHT22;14939;43.596;1.320;2023-07-09T09:32:42;25.60;62.70
27506;DHT22;14939;43.596;1.320;2023-07-09T09:35:13;26.00;59.00
27506;DHT22;14939;43.596;1.320;2023-07-09T09:37:38;26.20;57.60
27506;DHT22;14939;43.596;1.320;2023-07-09T09:40:04;25.60;59.90
27506;DHT22;14939;43.596;1.320;2023-07-09T09:42:30;25.60;59.70
27506;DHT22;14939;43.596;1.320;2023-07-09T09:44:55;26.20;60.00
27506;DHT22;14939;43.596;1.320;2023-07-09T09:47:21;26.70;56.80
27506;DHT22;14939;43.596;1.320;2023-07-09T09:49:48;26.60;55.80
27506;DHT22;14939;43.596;1.320;2023-07-09T09:52:14;26.30;56.30
27506;DHT22;14939;43.596;1.320;2023-07-09T09:54:41;26.30;57.90
27506;DHT22;14939;43.596;1.320;2023-07-09T09:57:15;26.50;57.50
27506;DHT22;14939;43.596;1.320;2023-07-09T09:59:41;26.40;56.90
27506;DHT22;14939;43.596;1.320;2023-07-09T10:02:17;26.30;56.50
27506;DHT22;14939;43.596;1.320;2023-07-09T10:04:43;26.30;56.20
27506;DHT22;14939;43.596;1.320;2023-07-09T10:07:11;26.80;56.20
27506;DHT22;14939;43.596;1.320;2023-07-09T10:09:52;27.10;56.30
27506;DHT22;14939;43.596;1.320;2023-07-09T10:19:47;27.90;51.60
27506;DHT22;14939;43.596;1.320;2023-07-09T10:22:16;27.40;51.50
27506;DHT22;14939;43.596;1.320;2023-07-09T10:35:21;29.00;48.30
27506;DHT22;14939;43.596;1.320;2023-07-09T10:40:28;29.30;47.10
27506;DHT22;14939;43.596;1.320;2023-07-09T10:42:55;29.20;44.70
27506;DHT22;14939;43.596;1.320;2023-07-09T10:45:23;29.20;45.00
27506;DHT22;14939;43.596;1.320;2023-07-09T10:47:55;28.60;45.60
27506;DHT22;14939;43.596;1.320;2023-07-09T10:50:27;28.30;47.00
27506;DHT22;14939;43.596;1.320;2023-07-09T10:52:54;28.00;48.40
27506;DHT22;14939;43.596;1.320;2023-07-09T10:57:51;27.80;48.90
27506;DHT22;14939;43.596;1.320;2023-07-09T11:00:19;27.70;49.30
27506;DHT22;14939;43.596;1.320;2023-07-09T11:02:45;28.10;49.10
27506;DHT22;14939;43.596;1.320;2023-07-09T11:05:13;28.00;48.50
27506;DHT22;14939;43.596;1.320;2023-07-09T11:07:43;28.10;49.80
27506;DHT22;14939;43.596;1.320;2023-07-09T11:10:32;28.30;48.20
27506;DHT22;14939;43.596;1.320;2023-07-09T11:12:58;28.00;48.60
27506;DHT22;14939;43.596;1.320;2023-07-09T11:15:27;27.90;49.20
27506;DHT22;14939;43.596;1.320;2023-07-09T11:17:56;28.00;50.40
27506;DHT22;14939;43.596;1.320;2023-07-09T11:20:33;28.10;48.40
27506;DHT22;14939;43.596;1.320;2023-07-09T11:25:44;28.20;48.30
27506;DHT22;14939;43.596;1.320;2023-07-09T11:28:10;28.20;48.20
27506;DHT22;14939;43.596;1.320;2023-07-09T11:30:49;28.00;47.90
27506;DHT22;14939;43.596;1.320;2023-07-09T11:33:20;27.80;48.30
27506;DHT22;14939;43.596;1.320;2023-07-09T11:35:49;27.80;49.30
27506;DHT22;14939;43.596;1.320;2023-07-09T11:38:19;27.80;49.30
27506;DHT22;14939;43.596;1.320;2023-07-09T11:40:46;27.70;49.10
27506;DHT22;14939;43.596;1.320;2023-07-09T11:43:25;27.60;48.80
27506;DHT22;14939;43.596;1.320;2023-07-09T11:45:50;27.80;49.00
27506;DHT22;14939;43.596;1.320;2023-07-09T11:48:25;27.80;49.50
27506;DHT22;14939;43.596;1.320;2023-07-09T11:50:51;27.80;48.40
27506;DHT22;14939;43.596;1.320;2023-07-09T11:55:46;28.10;50.60
27506;DHT22;14939;43.596;1.320;2023-07-09T11:58:13;28.10;47.80
27506;DHT22;14939;43.596;1.320;2023-07-09T12:00:39;28.30;49.60
27506;DHT22;14939;43.596;1.320;2023-07-09T12:03:06;28.20;47.00
27506;DHT22;14939;43.596;1.320;2023-07-09T12:05:32;28.50;48.40
27506;DHT22;14939;43.596;1.320;2023-07-09T12:07:58;28.80;46.70
27506;DHT22;14939;43.596;1.320;2023-07-09T12:10:25;28.70;47.60
27506;DHT22;14939;43.596;1.320;2023-07-09T12:12:55;28.70;47.30
27506;DHT22;14939;43.596;1.320;2023-07-09T12:15:22;28.90;44.70
27506;DHT22;14939;43.596;1.320;2023-07-09T12:17:58;28.80;46.20
27506;DHT22;14939;43.596;1.320;2023-07-09T12:20:25;28.60;44.80
27506;DHT22;14939;43.596;1.320;2023-07-09T12:22:50;28.70;45.60
27506;DHT22;14939;43.596;1.320;2023-07-09T12:25:20;28.70;47.00
27506;DHT22;14939;43.596;1.320;2023-07-09T12:27:46;29.10;45.80
27506;DHT22;14939;43.596;1.320;2023-07-09T12:30:12;28.90;44.20
27506;DHT22;14939;43.596;1.320;2023-07-09T12:32:48;29.10;44.60
27506;DHT22;14939;43.596;1.320;2023-07-09T12:35:19;29.20;46.00
27506;DHT22;14939;43.596;1.320;2023-07-09T12:37:46;29.60;45.60
27506;DHT22;14939;43.596;1.320;2023-07-09T12:40:16;29.60;44.70
27506;DHT22;14939;43.596;1.320;2023-07-09T12:42:42;29.80;44.20
27506;DHT22;14939;43.596;1.320;2023-07-09T12:45:18;30.10;44.20
27506;DHT22;14939;43.596;1.320;2023-07-09T12:47:45;30.10;40.70
27506;DHT22;14939;43.596;1.320;2023-07-09T12:50:19;30.00;42.10
27506;DHT22;14939;43.596;1.320;2023-07-09T12:52:45;29.90;42.20
27506;DHT22;14939;43.596;1.320;2023-07-09T12:55:22;29.60;42.00
27506;DHT22;14939;43.596;1.320;2023-07-09T12:57:48;29.70;43.00
27506;DHT22;14939;43.596;1.320;2023-07-09T13:00:14;29.40;40.70
27506;DHT22;14939;43.596;1.320;2023-07-09T13:02:40;29.50;42.30
27506;DHT22;14939;43.596;1.320;2023-07-09T13:05:17;29.90;41.60
27506;DHT22;14939;43.596;1.320;2023-07-09T13:07:45;29.80;40.90
27506;DHT22;14939;43.596;1.320;2023-07-09T13:10:16;30.20;40.50
27506;DHT22;14939;43.596;1.320;2023-07-09T13:12:44;30.30;42.30
27506;DHT22;14939;43.596;1.320;2023-07-09T13:15:24;30.30;41.60
27506;DHT22;14939;43.596;1.320;2023-07-09T13:17:56;30.30;41.20
27506;DHT22;14939;43.596;1.320;2023-07-09T13:20:21;30.20;40.30
27506;DHT22;14939;43.596;1.320;2023-07-09T13:22:47;30.10;39.10
27506;DHT22;14939;43.596;1.320;2023-07-09T13:25:12;29.80;40.00
27506;DHT22;14939;43.596;1.320;2023-07-09T13:27:38;30.10;38.90
27506;DHT22;14939;43.596;1.320;2023-07-09T13:30:04;30.70;39.20
27506;DHT22;14939;43.596;1.320;2023-07-09T13:32:29;31.10;39.00
27506;DHT22;14939;43.596;1.320;2023-07-09T13:34:55;31.20;36.90
27506;DHT22;14939;43.596;1.320;2023-07-09T13:37:20;31.20;39.00
27506;DHT22;14939;43.596;1.320;2023-07-09T13:39:46;30.90;36.50
27506;DHT22;14939;43.596;1.320;2023-07-09T13:42:13;30.80;37.60
27506;DHT22;14939;43.596;1.320;2023-07-09T13:44:40;31.00;37.10
27506;DHT22;14939;43.596;1.320;2023-07-09T13:47:08;31.30;35.50
27506;DHT22;14939;43.596;1.320;2023-07-09T13:49:35;31.40;35.80
27506;DHT22;14939;43.596;1.320;2023-07-09T13:52:00;31.60;36.80
27506;DHT22;14939;43.596;1.320;2023-07-09T13:54:28;31.40;35.20
27506;DHT22;14939;43.596;1.320;2023-07-09T13:57:07;31.30;34.20
27506;DHT22;14939;43.596;1.320;2023-07-09T13:59:36;31.20;35.30
27506;DHT22;14939;43.596;1.320;2023-07-09T14:02:01;31.40;35.60
27506;DHT22;14939;43.596;1.320;2023-07-09T14:04:27;31.40;34.10
27506;DHT22;14939;43.596;1.320;2023-07-09T14:06:53;31.40;34.60
27506;DHT22;14939;43.596;1.320;2023-07-09T14:09:19;31.90;33.90
27506;DHT22;14939;43.596;1.320;2023-07-09T14:11:49;32.30;33.30
27506;DHT22;14939;43.596;1.320;2023-07-09T14:14:26;32.10;33.20
27506;DHT22;14939;43.596;1.320;2023-07-09T14:16:53;32.10;32.80
27506;DHT22;14939;43.596;1.320;2023-07-09T14:19:19;32.40;31.70
27506;DHT22;14939;43.596;1.320;2023-07-09T14:21:45;32.50;33.00
27506;DHT22;14939;43.596;1.320;2023-07-09T14:26:40;32.80;31.10
27506;DHT22;14939;43.596;1.320;2023-07-09T14:29:05;33.50;29.60
27506;DHT22;14939;43.596;1.320;2023-07-09T14:31:31;33.60;29.30
27506;DHT22;14939;43.596;1.320;2023-07-09T14:33:59;33.00;30.50
27506;DHT22;14939;43.596;1.320;2023-07-09T14:36:36;33.00;29.90
27506;DHT22;14939;43.596;1.320;2023-07-09T14:39:02;33.20;30.00
27506;DHT22;14939;43.596;1.320;2023-07-09T14:41:28;32.50;31.30
27506;DHT22;14939;43.596;1.320;2023-07-09T14:43:54;32.20;31.70
27506;DHT22;14939;43.596;1.320;2023-07-09T14:46:22;32.20;31.80
27506;DHT22;14939;43.596;1.320;2023-07-09T14:48:48;32.50;31.60
27506;DHT22;14939;43.596;1.320;2023-07-09T14:51:14;32.50;30.90
27506;DHT22;14939;43.596;1.320;2023-07-09T14:53:41;32.80;30.80
27506;DHT22;14939;43.596;1.320;2023-07-09T14:56:07;32.90;30.40
27506;DHT22;14939;43.596;1.320;2023-07-09T14:58:32;32.90;29.60
27506;DHT22;14939;43.596;1.320;2023-07-09T15:00:58;35.30;26.80
27506;DHT22;14939;43.596;1.320;2023-07-09T15:03:24;37.80;21.90
27506;DHT22;14939;43.596;1.320;2023-07-09T15:05:52;38.50;18.70
27506;DHT22;14939;43.596;1.320;2023-07-09T15:08:20;39.60;17.30
27506;DHT22;14939;43.596;1.320;2023-07-09T15:10:49;39.40;17.40
27506;DHT22;14939;43.596;1.320;2023-07-09T15:13:16;40.90;15.20
27506;DHT22;14939;43.596;1.320;2023-07-09T15:15:42;40.10;14.60
27506;DHT22;14939;43.596;1.320;2023-07-09T15:18:13;39.10;16.00
27506;DHT22;14939;43.596;1.320;2023-07-09T15:20:47;40.60;14.00
27506;DHT22;14939;43.596;1.320;2023-07-09T15:23:12;39.10;15.50
27506;DHT22;14939;43.596;1.320;2023-07-09T15:25:38;39.80;15.10
27506;DHT22;14939;43.596;1.320;2023-07-09T15:28:03;38.70;15.50
27506;DHT22;14939;43.596;1.320;2023-07-09T15:30:29;35.50;21.20
27506;DHT22;14939;43.596;1.320;2023-07-09T15:33:00;34.80;23.70
27506;DHT22;14939;43.596;1.320;2023-07-09T15:35:28;35.70;22.00
27506;DHT22;14939;43.596;1.320;2023-07-09T15:37:54;35.70;21.80
27506;DHT22;14939;43.596;1.320;2023-07-09T15:40:23;38.20;18.50
27506;DHT22;14939;43.596;1.320;2023-07-09T15:42:50;39.30;15.50
27506;DHT22;14939;43.596;1.320;2023-07-09T15:45:17;38.90;16.50
27506;DHT22;14939;43.596;1.320;2023-07-09T15:47:47;38.20;16.50
27506;DHT22;14939;43.596;1.320;2023-07-09T15:52:38;38.90;16.10
27506;DHT22;14939;43.596;1.320;2023-07-09T15:55:04;38.50;16.50
27506;DHT22;14939;43.596;1.320;2023-07-09T15:57:29;38.50;16.20
27506;DHT22;14939;43.596;1.320;2023-07-09T15:59:55;38.40;16.40
27506;DHT22;14939;43.596;1.320;2023-07-09T16:02:21;39.50;15.80
27506;DHT22;14939;43.596;1.320;2023-07-09T16:04:46;38.90;15.60
27506;DHT22;14939;43.596;1.320;2023-07-09T16:07:12;38.20;16.50
27506;DHT22;14939;43.596;1.320;2023-07-09T16:09:37;39.00;16.70
27506;DHT22;14939;43.596;1.320;2023-07-09T16:12:04;39.20;15.40
27506;DHT22;14939;43.596;1.320;2023-07-09T16:14:30;38.80;16.00
27506;DHT22;14939;43.596;1.320;2023-07-09T16:16:57;39.10;15.00